createdAt,value
2023-05-24T00:00:13.138Z,6.22
2023-05-24T00:00:45.043Z,6.38
2023-05-24T00:01:25.608Z,6.45
2023-05-24T00:01:57.491Z,6.20
2023-05-24T00:02:29.178Z,6.37
2023-05-24T00:03:01.086Z,6.45
2023-05-24T00:03:35.365Z,6.32
2023-05-24T00:04:07.202Z,6.70
2023-05-24T00:04:40.625Z,6.80
2023-05-24T00:05:12.332Z,7.05
2023-05-24T00:05:46.798Z,6.93
2023-05-24T00:06:21.664Z,6.82
2023-05-24T00:06:55.105Z,6.78
2023-05-24T00:07:27.011Z,6.88
2023-05-24T00:07:59.494Z,6.97
2023-05-24T00:08:31.187Z,7.07
2023-05-24T00:09:06.546Z,6.78
2023-05-24T00:09:38.180Z,6.55
2023-05-24T00:10:10.860Z,7.40
2023-05-24T00:10:43.064Z,6.78
2023-05-24T00:11:14.879Z,6.90
2023-05-24T00:11:46.517Z,7.07
2023-05-24T00:12:18.166Z,6.85
2023-05-24T00:12:49.841Z,7.03
2023-05-24T00:13:21.536Z,6.40
2023-05-24T00:13:53.691Z,7.00
2023-05-24T00:14:25.770Z,7.00
2023-05-24T00:14:57.660Z,6.55
2023-05-24T00:15:29.421Z,6.97
2023-05-24T00:16:01.167Z,6.80
2023-05-24T00:16:33.043Z,7.25
2023-05-24T00:17:04.940Z,7.05
2023-05-24T00:17:41.364Z,7.10
2023-05-24T00:18:13.387Z,6.68
2023-05-24T00:18:47.314Z,7.40
2023-05-24T00:19:19.139Z,7.05
2023-05-24T00:19:52.692Z,6.88
2023-05-24T00:20:24.454Z,6.90
2023-05-24T00:20:57.293Z,7.28
2023-05-24T00:21:29.061Z,6.97
2023-05-24T00:22:00.837Z,7.00
2023-05-24T00:22:32.503Z,6.53
2023-05-24T00:23:04.521Z,6.75
2023-05-24T00:23:37.254Z,6.65
2023-05-24T00:24:11.172Z,6.20
2023-05-24T00:24:42.875Z,6.57
2023-05-24T00:25:14.542Z,6.78
2023-05-24T00:25:46.397Z,7.22
2023-05-24T00:26:18.191Z,6.05
2023-05-24T00:26:49.874Z,6.45
2023-05-24T00:27:21.653Z,6.40
2023-05-24T00:27:53.340Z,6.80
2023-05-24T00:28:25.035Z,6.60
2023-05-24T00:28:57.051Z,6.57
2023-05-24T00:29:30.774Z,6.77
2023-05-24T00:30:05.533Z,6.60
2023-05-24T00:30:37.258Z,6.53
2023-05-24T00:31:08.957Z,7.30
2023-05-24T00:31:40.837Z,6.88
2023-05-24T00:32:12.491Z,7.10
2023-05-24T00:32:44.456Z,6.70
2023-05-24T00:33:16.513Z,6.85
2023-05-24T00:33:48.168Z,6.90
2023-05-24T00:34:20.067Z,7.03
2023-05-24T00:34:51.916Z,6.93
2023-05-24T00:35:23.747Z,7.18
2023-05-24T00:35:58.563Z,6.80
2023-05-24T00:36:30.200Z,7.20
2023-05-24T00:37:01.975Z,7.10
2023-05-24T00:37:33.751Z,7.28
2023-05-24T00:38:05.376Z,6.95
2023-05-24T00:38:37.003Z,7.03
2023-05-24T00:39:08.830Z,7.35
2023-05-24T00:39:41.350Z,6.72
2023-05-24T00:40:13.352Z,7.03
2023-05-24T00:40:45.064Z,6.97
2023-05-24T00:41:17.020Z,7.53
2023-05-24T00:41:48.748Z,6.40
2023-05-24T00:42:20.479Z,6.85
2023-05-24T00:42:52.152Z,6.75
2023-05-24T00:43:24.344Z,7.20
2023-05-24T00:43:56.345Z,7.22
2023-05-24T00:44:28.019Z,7.47
2023-05-24T00:44:59.674Z,6.90
2023-05-24T00:45:33.619Z,6.83
2023-05-24T00:46:32.253Z,6.88
2023-05-24T00:47:04.338Z,6.93
2023-05-24T00:47:36.629Z,6.70
2023-05-24T00:48:09.683Z,7.00
2023-05-24T00:48:43.130Z,7.03
2023-05-24T00:49:14.852Z,7.40
2023-05-24T00:49:47.000Z,6.95
2023-05-24T00:50:19.550Z,7.47
2023-05-24T00:50:51.209Z,6.85
2023-05-24T00:51:24.100Z,7.20
2023-05-24T00:51:55.887Z,6.95
2023-05-24T00:52:27.812Z,7.05
2023-05-24T00:53:02.247Z,7.55
2023-05-24T00:53:35.628Z,7.13
2023-05-24T00:54:07.550Z,6.95
2023-05-24T00:54:40.879Z,6.95
2023-05-24T00:55:12.712Z,7.05
2023-05-24T00:55:44.364Z,6.70
2023-05-24T00:56:17.990Z,6.70
2023-05-24T00:56:49.792Z,6.63
2023-05-24T00:57:21.917Z,6.93
2023-05-24T00:57:55.157Z,6.28
2023-05-24T00:58:31.128Z,7.18
2023-05-24T00:59:02.871Z,6.40
2023-05-24T00:59:34.869Z,6.25
2023-05-24T01:00:08.275Z,6.55
2023-05-24T01:00:40.401Z,6.53
2023-05-24T01:01:12.823Z,6.97
2023-05-24T01:01:47.265Z,6.47
2023-05-24T01:02:21.032Z,6.80
2023-05-24T01:02:52.991Z,6.75
2023-05-24T01:03:24.771Z,7.03
2023-05-24T01:03:57.541Z,7.18
2023-05-24T01:04:29.403Z,7.10
2023-05-24T01:05:01.219Z,7.43
2023-05-24T01:05:33.420Z,6.90
2023-05-24T01:06:07.401Z,6.80
2023-05-24T01:06:51.847Z,7.40
2023-05-24T01:07:58.545Z,6.88
2023-05-24T01:08:39.100Z,6.57
2023-05-24T01:09:13.519Z,6.40
2023-05-24T01:10:04.706Z,7.38
2023-05-24T01:10:39.484Z,7.00
2023-05-24T01:11:20.150Z,6.78
2023-05-24T01:12:37.104Z,6.80
2023-05-24T01:13:44.864Z,6.85
2023-05-24T01:14:58.515Z,6.45
2023-05-24T01:15:47.736Z,6.75
2023-05-24T01:16:32.999Z,6.75
2023-05-24T01:17:15.256Z,6.80
2023-05-24T01:18:01.749Z,6.70
2023-05-24T01:18:38.775Z,7.45
2023-05-24T01:19:43.683Z,7.78
2023-05-24T01:20:17.910Z,7.32
2023-05-24T01:20:55.130Z,7.57
2023-05-24T01:21:57.890Z,7.30
2023-05-24T01:22:51.207Z,6.97
2023-05-24T01:23:47.601Z,7.35
2023-05-24T01:24:25.507Z,7.07
2023-05-24T01:25:25.926Z,7.30
2023-05-24T01:26:22.280Z,7.88
2023-05-24T01:26:53.982Z,6.78
2023-05-24T01:27:26.480Z,8.32
2023-05-24T01:27:58.854Z,8.38
2023-05-24T01:28:32.284Z,8.13
2023-05-24T01:29:05.243Z,7.60
2023-05-24T01:29:37.653Z,7.80
2023-05-24T01:30:10.089Z,8.63
2023-05-24T01:30:42.999Z,7.78
2023-05-24T01:31:17.200Z,8.73
2023-05-24T01:31:49.279Z,8.10
2023-05-24T01:32:21.595Z,7.50
2023-05-24T01:32:53.858Z,8.25
2023-05-24T01:33:26.183Z,7.80
2023-05-24T01:33:57.854Z,8.10
2023-05-24T01:34:29.541Z,8.18
2023-05-24T01:35:01.394Z,7.63
2023-05-24T01:35:37.945Z,8.00
2023-05-24T01:36:09.802Z,8.32
2023-05-24T01:36:41.488Z,8.27
2023-05-24T01:37:13.163Z,8.43
2023-05-24T01:37:44.846Z,8.35
2023-05-24T01:38:16.500Z,8.27
2023-05-24T01:38:49.473Z,8.45
2023-05-24T01:39:22.945Z,8.13
2023-05-24T01:39:55.538Z,8.73
2023-05-24T01:40:27.332Z,8.77
2023-05-24T01:41:06.735Z,9.38
2023-05-24T01:42:12.766Z,7.80
2023-05-24T01:43:04.113Z,7.50
2023-05-24T01:43:43.693Z,7.72
2023-05-24T01:44:27.928Z,8.13
2023-05-24T01:45:11.452Z,9.15
2023-05-24T01:46:06.885Z,8.48
2023-05-24T01:46:39.251Z,7.88
2023-05-24T01:47:40.978Z,8.07
2023-05-24T01:48:19.491Z,7.97
2023-05-24T01:49:08.567Z,8.38
2023-05-24T01:49:46.516Z,8.82
2023-05-24T01:50:27.030Z,9.20
2023-05-24T01:51:00.335Z,8.25
2023-05-24T01:51:40.391Z,7.93
2023-05-24T01:52:16.362Z,9.45
2023-05-24T01:52:50.350Z,8.88
2023-05-24T01:53:26.397Z,8.77
2023-05-24T01:53:59.292Z,8.30
2023-05-24T01:54:38.804Z,9.65
2023-05-24T01:55:12.848Z,10.63
2023-05-24T01:55:48.285Z,9.48
2023-05-24T01:56:20.935Z,9.47
2023-05-24T01:56:57.573Z,9.30
2023-05-24T01:57:29.575Z,9.90
2023-05-24T01:58:04.668Z,9.63
2023-05-24T01:58:37.891Z,9.85
2023-05-24T01:59:10.603Z,9.02
2023-05-24T01:59:44.277Z,10.07
2023-05-24T02:00:18.480Z,10.18
2023-05-24T02:00:51.914Z,11.85
2023-05-24T02:01:23.990Z,11.68
2023-05-24T02:01:56.618Z,11.77
2023-05-24T02:02:29.213Z,11.23
2023-05-24T02:03:02.409Z,11.73
2023-05-24T02:03:34.633Z,11.13
2023-05-24T02:04:07.201Z,11.73
2023-05-24T02:04:39.269Z,11.88
2023-05-24T02:05:11.957Z,12.18
2023-05-24T02:05:44.568Z,12.15
2023-05-24T02:06:16.229Z,12.02
2023-05-24T02:06:47.891Z,12.07
2023-05-24T02:07:19.783Z,11.30
2023-05-24T02:07:51.558Z,11.00
2023-05-24T02:08:23.505Z,11.13
2023-05-24T02:08:55.247Z,11.00
2023-05-24T02:09:27.010Z,11.15
2023-05-24T02:09:58.656Z,11.38
2023-05-24T02:10:30.536Z,11.27
2023-05-24T02:11:02.976Z,10.98
2023-05-24T02:11:34.741Z,10.90
2023-05-24T02:12:07.042Z,10.32
2023-05-24T02:12:38.718Z,11.33
2023-05-24T02:13:10.551Z,11.70
2023-05-24T02:13:42.336Z,10.93
2023-05-24T02:14:14.095Z,12.30
2023-05-24T02:14:45.741Z,11.68
2023-05-24T02:15:17.696Z,10.98
2023-05-24T02:15:50.088Z,10.35
2023-05-24T02:16:23.981Z,11.05
2023-05-24T02:16:58.866Z,11.52
2023-05-24T02:17:33.158Z,10.63
2023-05-24T02:18:08.335Z,10.80
2023-05-24T02:18:40.333Z,10.38
2023-05-24T02:19:12.305Z,10.63
2023-05-24T02:19:44.213Z,11.15
2023-05-24T02:20:17.612Z,11.63
2023-05-24T02:20:49.404Z,10.43
2023-05-24T02:21:21.052Z,10.80
2023-05-24T02:21:53.528Z,10.60
2023-05-24T02:22:25.487Z,10.35
2023-05-24T02:22:58.244Z,9.98
2023-05-24T02:23:29.925Z,10.50
2023-05-24T02:24:01.595Z,9.77
2023-05-24T02:24:33.454Z,10.73
2023-05-24T02:25:05.615Z,10.63
2023-05-24T02:25:37.453Z,10.88
2023-05-24T02:26:11.631Z,10.60
2023-05-24T02:26:43.301Z,11.20
2023-05-24T02:27:15.313Z,11.00
2023-05-24T02:27:47.962Z,11.07
2023-05-24T02:28:19.835Z,9.93
2023-05-24T02:28:51.656Z,11.53
2023-05-24T02:29:23.297Z,10.40
2023-05-24T02:29:55.044Z,10.65
2023-05-24T02:30:29.153Z,11.32
2023-05-24T02:31:01.240Z,11.00
2023-05-24T02:31:33.172Z,10.68
2023-05-24T02:32:05.270Z,11.52
2023-05-24T02:32:37.208Z,10.38
2023-05-24T02:33:09.055Z,11.02
2023-05-24T02:33:40.753Z,11.50
2023-05-24T02:34:12.438Z,11.03
2023-05-24T02:34:44.857Z,10.77
2023-05-24T02:35:16.731Z,10.65
2023-05-24T02:35:48.625Z,11.80
2023-05-24T02:36:20.553Z,11.35
2023-05-24T02:36:54.400Z,11.07
2023-05-24T02:37:26.030Z,11.00
2023-05-24T02:37:58.769Z,10.45
2023-05-24T02:38:32.145Z,10.70
2023-05-24T02:39:04.470Z,10.43
2023-05-24T02:39:36.234Z,10.40
2023-05-24T02:40:08.677Z,10.55
2023-05-24T02:40:40.637Z,10.38
2023-05-24T02:41:18.038Z,10.40
2023-05-24T02:41:49.715Z,10.75
2023-05-24T02:42:21.415Z,9.98
2023-05-24T02:42:53.193Z,10.45
2023-05-24T02:43:24.802Z,11.13
2023-05-24T02:43:56.526Z,10.45
2023-05-24T02:44:28.419Z,10.25
2023-05-24T02:45:00.238Z,11.60
2023-05-24T02:45:32.056Z,10.57
2023-05-24T02:46:04.306Z,10.52
2023-05-24T02:46:36.066Z,10.98
2023-05-24T02:47:08.068Z,11.20
2023-05-24T02:47:40.157Z,11.55
2023-05-24T02:48:11.800Z,11.35
2023-05-24T02:48:43.457Z,11.82
2023-05-24T02:49:15.453Z,11.68
2023-05-24T02:49:47.296Z,11.85
2023-05-24T02:50:19.033Z,12.40
2023-05-24T02:50:50.672Z,11.70
2023-05-24T02:51:22.362Z,12.40
2023-05-24T02:51:54.547Z,12.48
2023-05-24T02:52:26.843Z,11.43
2023-05-24T02:52:58.511Z,12.23
2023-05-24T02:53:31.520Z,12.10
2023-05-24T02:54:03.937Z,12.95
2023-05-24T02:54:37.076Z,12.95
2023-05-24T02:55:09.136Z,13.23
2023-05-24T02:55:44.085Z,13.03
2023-05-24T02:56:17.448Z,13.57
2023-05-24T02:56:49.205Z,13.38
2023-05-24T02:57:20.990Z,13.82
2023-05-24T02:57:54.159Z,13.80
2023-05-24T02:58:29.210Z,13.65
2023-05-24T02:59:00.844Z,13.00
2023-05-24T02:59:33.706Z,13.00
2023-05-24T03:00:09.520Z,14.05
2023-05-24T03:00:41.527Z,13.55
2023-05-24T03:01:13.607Z,14.57
2023-05-24T03:01:45.554Z,13.35
2023-05-24T03:02:19.592Z,12.95
2023-05-24T03:02:52.590Z,13.48
2023-05-24T03:03:24.570Z,14.18
2023-05-24T03:03:56.378Z,14.43
2023-05-24T03:04:28.209Z,15.05
2023-05-24T03:04:59.873Z,14.30
2023-05-24T03:05:31.543Z,14.02
2023-05-24T03:06:03.517Z,14.32
2023-05-24T03:06:35.210Z,14.53
2023-05-24T03:07:06.859Z,14.57
2023-05-24T03:07:38.498Z,13.95
2023-05-24T03:08:10.200Z,14.27
2023-05-24T03:08:42.438Z,14.57
2023-05-24T03:09:16.527Z,14.20
2023-05-24T03:09:48.309Z,13.57
2023-05-24T03:10:19.984Z,14.45
2023-05-24T03:10:51.742Z,13.38
2023-05-24T03:11:24.042Z,14.65
2023-05-24T03:11:55.753Z,13.73
2023-05-24T03:12:27.425Z,13.77
2023-05-24T03:12:59.304Z,13.60
2023-05-24T03:13:31.045Z,14.95
2023-05-24T03:14:02.780Z,14.57
2023-05-24T03:14:34.565Z,14.60
2023-05-24T03:15:06.906Z,14.85
2023-05-24T03:15:38.623Z,14.07
2023-05-24T03:16:10.729Z,14.52
2023-05-24T03:16:42.566Z,15.02
2023-05-24T03:17:14.521Z,15.53
2023-05-24T03:17:46.361Z,14.75
2023-05-24T03:18:18.058Z,15.68
2023-05-24T03:18:55.348Z,15.43
2023-05-24T03:19:27.004Z,15.35
2023-05-24T03:19:58.709Z,15.25
2023-05-24T03:20:31.369Z,14.65
2023-05-24T03:21:03.127Z,15.63
2023-05-24T03:21:34.805Z,15.07
2023-05-24T03:22:06.836Z,15.68
2023-05-24T03:22:38.548Z,14.77
2023-05-24T03:23:10.239Z,15.63
2023-05-24T03:23:41.888Z,15.85
2023-05-24T03:24:13.609Z,15.68
2023-05-24T03:24:46.423Z,15.02
2023-05-24T03:25:18.820Z,15.18
2023-05-24T03:25:50.549Z,15.88
2023-05-24T03:26:22.281Z,14.57
2023-05-24T03:26:53.986Z,16.48
2023-05-24T03:27:25.655Z,16.52
2023-05-24T03:27:57.361Z,16.27
2023-05-24T03:28:30.240Z,16.23
2023-05-24T03:29:02.451Z,15.57
2023-05-24T03:29:34.157Z,15.18
2023-05-24T03:30:07.027Z,16.08
2023-05-24T03:30:38.693Z,15.82
2023-05-24T03:31:10.743Z,16.08
2023-05-24T03:31:42.433Z,15.68
2023-05-24T03:32:14.393Z,16.08
2023-05-24T03:32:46.136Z,15.32
2023-05-24T03:33:17.895Z,15.20
2023-05-24T03:33:49.845Z,15.05
2023-05-24T03:34:21.656Z,15.55
2023-05-24T03:34:53.488Z,14.70
2023-05-24T03:35:25.534Z,15.00
2023-05-24T03:35:57.178Z,15.50
2023-05-24T03:36:29.305Z,15.70
2023-05-24T03:37:01.060Z,15.75
2023-05-24T03:37:32.670Z,15.55
2023-05-24T03:38:04.329Z,14.30
2023-05-24T03:38:36.088Z,14.63
2023-05-24T03:39:08.145Z,15.10
2023-05-24T03:39:39.807Z,14.75
2023-05-24T03:40:11.919Z,15.32
2023-05-24T03:40:44.894Z,16.27
2023-05-24T03:41:16.517Z,14.60
2023-05-24T03:41:48.146Z,15.65
2023-05-24T03:42:21.248Z,15.35
2023-05-24T03:42:52.874Z,15.68
2023-05-24T03:43:24.497Z,15.68
2023-05-24T03:43:56.162Z,15.97
2023-05-24T03:44:27.839Z,15.85
2023-05-24T03:44:59.488Z,14.93
2023-05-24T03:45:38.992Z,16.30
2023-05-24T03:46:11.723Z,15.57
2023-05-24T03:46:43.377Z,16.13
2023-05-24T03:47:15.087Z,16.05
2023-05-24T03:47:46.764Z,16.73
2023-05-24T03:48:21.023Z,15.80
2023-05-24T03:48:52.933Z,16.45
2023-05-24T03:49:24.573Z,15.83
2023-05-24T03:49:56.315Z,16.95
2023-05-24T03:50:28.009Z,16.17
2023-05-24T03:50:59.718Z,15.93
2023-05-24T03:51:31.374Z,16.17
2023-05-24T03:52:03.614Z,15.05
2023-05-24T03:52:35.500Z,15.50
2023-05-24T03:53:07.281Z,15.80
2023-05-24T03:53:38.961Z,16.45
2023-05-24T03:54:10.721Z,15.73
2023-05-24T03:54:42.366Z,15.70
2023-05-24T03:55:15.172Z,15.55
2023-05-24T03:55:49.039Z,15.63
2023-05-24T03:56:20.710Z,15.55
2023-05-24T03:56:53.606Z,16.40
2023-05-24T03:57:25.299Z,16.58
2023-05-24T03:57:56.978Z,16.13
2023-05-24T03:58:28.685Z,16.90
2023-05-24T03:59:03.941Z,16.50
2023-05-24T03:59:35.726Z,16.20
2023-05-24T04:00:08.456Z,16.43
2023-05-24T04:00:40.605Z,18.10
2023-05-24T04:01:21.921Z,16.83
2023-05-24T04:01:57.367Z,16.83
2023-05-24T04:02:29.145Z,17.02
2023-05-24T04:03:01.966Z,17.00
2023-05-24T04:03:34.469Z,18.17
2023-05-24T04:04:06.319Z,17.08
2023-05-24T04:04:38.032Z,16.92
2023-05-24T04:05:10.936Z,17.33
2023-05-24T04:05:42.599Z,17.80
2023-05-24T04:06:16.908Z,17.13
2023-05-24T04:06:49.823Z,17.92
2023-05-24T04:07:24.646Z,17.88
2023-05-24T04:07:56.512Z,17.45
2023-05-24T04:08:28.216Z,17.10
2023-05-24T04:09:01.559Z,17.00
2023-05-24T04:09:33.322Z,16.83
2023-05-24T04:10:07.158Z,18.05
2023-05-24T04:10:39.059Z,16.45
2023-05-24T04:11:11.971Z,17.13
2023-05-24T04:11:43.725Z,17.25
2023-05-24T04:12:15.510Z,16.02
2023-05-24T04:12:47.270Z,16.90
2023-05-24T04:13:18.913Z,17.35
2023-05-24T04:13:51.582Z,16.63
2023-05-24T04:14:23.262Z,16.80
2023-05-24T04:14:54.946Z,16.17
2023-05-24T04:15:26.937Z,17.40
2023-05-24T04:15:58.565Z,16.38
2023-05-24T04:16:34.157Z,16.90
2023-05-24T04:17:07.875Z,16.13
2023-05-24T04:17:40.031Z,16.77
2023-05-24T04:18:12.195Z,15.73
2023-05-24T04:18:45.610Z,16.90
2023-05-24T04:19:17.397Z,15.82
2023-05-24T04:19:49.161Z,15.93
2023-05-24T04:20:25.776Z,15.23
2023-05-24T04:20:57.643Z,15.80
2023-05-24T04:21:29.647Z,14.68
2023-05-24T04:22:01.281Z,15.40
2023-05-24T04:22:32.906Z,14.57
2023-05-24T04:23:04.666Z,15.85
2023-05-24T04:23:36.315Z,14.85
2023-05-24T04:24:08.007Z,15.60
2023-05-24T04:24:39.785Z,15.68
2023-05-24T04:25:11.646Z,14.95
2023-05-24T04:25:43.386Z,14.93
2023-05-24T04:26:15.797Z,15.25
2023-05-24T04:26:47.887Z,15.02
2023-05-24T04:27:19.550Z,14.53
2023-05-24T04:27:51.335Z,14.90
2023-05-24T04:28:23.860Z,14.48
2023-05-24T04:28:55.994Z,14.15
2023-05-24T04:29:27.895Z,14.75
2023-05-24T04:29:59.794Z,14.98
2023-05-24T04:30:31.700Z,14.48
2023-05-24T04:31:03.436Z,14.13
2023-05-24T04:31:35.245Z,14.13
2023-05-24T04:32:07.407Z,14.38
2023-05-24T04:32:40.713Z,13.87
2023-05-24T04:33:12.754Z,14.00
2023-05-24T04:33:44.541Z,13.57
2023-05-24T04:34:16.336Z,13.60
2023-05-24T04:34:48.427Z,13.93
2023-05-24T04:35:20.505Z,13.40
2023-05-24T04:35:53.334Z,13.27
2023-05-24T04:36:25.646Z,12.68
2023-05-24T04:36:58.009Z,13.68
2023-05-24T04:37:29.824Z,13.38
2023-05-24T04:38:01.494Z,12.40
2023-05-24T04:38:34.640Z,12.65
2023-05-24T04:39:06.252Z,13.10
2023-05-24T04:39:37.991Z,13.48
2023-05-24T04:40:10.578Z,13.77
2023-05-24T04:40:42.732Z,12.90
2023-05-24T04:41:14.855Z,13.13
2023-05-24T04:41:46.705Z,13.13
2023-05-24T04:42:18.374Z,13.45
2023-05-24T04:42:50.929Z,13.00
2023-05-24T04:43:23.101Z,13.37
2023-05-24T04:43:54.734Z,12.18
2023-05-24T04:44:27.371Z,12.68
2023-05-24T04:44:59.354Z,13.32
2023-05-24T04:45:32.950Z,13.13
2023-05-24T04:46:06.301Z,12.43
2023-05-24T04:46:39.472Z,13.63
2023-05-24T04:47:12.912Z,13.43
2023-05-24T04:47:44.560Z,13.63
2023-05-24T04:48:16.752Z,12.27
2023-05-24T04:48:48.399Z,13.33
2023-05-24T04:49:20.063Z,12.52
2023-05-24T04:49:52.125Z,12.32
2023-05-24T04:50:24.217Z,12.93
2023-05-24T04:50:56.760Z,12.20
2023-05-24T04:51:29.488Z,12.90
2023-05-24T04:52:01.225Z,12.35
2023-05-24T04:52:33.487Z,13.15
2023-05-24T04:53:05.298Z,12.18
2023-05-24T04:53:37.286Z,11.75
2023-05-24T04:54:09.425Z,12.53
2023-05-24T04:54:41.155Z,12.63
2023-05-24T04:55:12.887Z,12.95
2023-05-24T04:55:44.809Z,11.73
2023-05-24T04:56:17.678Z,12.20
2023-05-24T04:56:49.378Z,13.00
2023-05-24T04:57:21.039Z,13.10
2023-05-24T04:57:52.672Z,12.55
2023-05-24T04:58:24.352Z,12.43
2023-05-24T04:58:56.045Z,12.02
2023-05-24T04:59:27.720Z,11.73
2023-05-24T04:59:59.435Z,12.45
2023-05-24T05:00:31.065Z,12.20
2023-05-24T05:01:03.023Z,12.68
2023-05-24T05:01:35.076Z,12.60
2023-05-24T05:02:06.973Z,12.63
2023-05-24T05:02:38.880Z,12.50
2023-05-24T05:03:11.651Z,12.77
2023-05-24T05:03:45.434Z,12.82
2023-05-24T05:04:17.220Z,12.90
2023-05-24T05:04:48.991Z,12.80
2023-05-24T05:05:21.444Z,12.52
2023-05-24T05:05:53.533Z,12.55
2023-05-24T05:06:25.310Z,12.98
2023-05-24T05:06:57.688Z,12.65
2023-05-24T05:07:29.395Z,12.45
2023-05-24T05:08:01.590Z,14.27
2023-05-24T05:08:33.564Z,13.65
2023-05-24T05:09:13.379Z,12.90
2023-05-24T05:09:45.057Z,13.30
2023-05-24T05:10:16.922Z,12.53
2023-05-24T05:10:48.817Z,12.07
2023-05-24T05:11:20.685Z,11.90
2023-05-24T05:11:52.429Z,11.98
2023-05-24T05:12:24.140Z,13.57
2023-05-24T05:12:56.017Z,12.48
2023-05-24T05:13:27.625Z,12.63
2023-05-24T05:13:59.412Z,12.50
2023-05-24T05:14:31.047Z,11.80
2023-05-24T05:15:03.278Z,12.07
2023-05-24T05:15:34.902Z,11.83
2023-05-24T05:16:06.823Z,12.00
2023-05-24T05:16:39.693Z,12.45
2023-05-24T05:17:11.471Z,12.02
2023-05-24T05:17:43.472Z,12.68
2023-05-24T05:18:16.486Z,12.40
2023-05-24T05:18:48.165Z,12.90
2023-05-24T05:19:19.836Z,12.40
2023-05-24T05:19:51.535Z,11.98
2023-05-24T05:20:23.330Z,12.70
2023-05-24T05:20:55.031Z,11.83
2023-05-24T05:21:26.651Z,12.25
2023-05-24T05:21:58.388Z,12.80
2023-05-24T05:22:31.306Z,12.30
2023-05-24T05:23:03.756Z,12.20
2023-05-24T05:23:36.412Z,11.90
2023-05-24T05:24:08.215Z,11.15
2023-05-24T05:24:40.215Z,11.63
2023-05-24T05:25:11.860Z,11.18
2023-05-24T05:25:43.589Z,11.23
2023-05-24T05:26:15.250Z,11.00
2023-05-24T05:26:46.986Z,11.05
2023-05-24T05:27:19.080Z,11.23
2023-05-24T05:27:50.945Z,11.48
2023-05-24T05:28:22.887Z,11.55
2023-05-24T05:28:57.475Z,10.77
2023-05-24T05:29:29.142Z,10.40
2023-05-24T05:30:00.869Z,11.95
2023-05-24T05:30:32.684Z,11.90
2023-05-24T05:31:04.668Z,11.18
2023-05-24T05:31:36.447Z,10.90
2023-05-24T05:32:08.271Z,11.00
2023-05-24T05:32:40.252Z,11.32
2023-05-24T05:33:12.550Z,11.30
2023-05-24T05:33:44.418Z,10.98
2023-05-24T05:34:16.078Z,11.00
2023-05-24T05:34:47.785Z,10.60
2023-05-24T05:35:23.894Z,10.63
2023-05-24T05:35:55.637Z,11.55
2023-05-24T05:36:27.314Z,11.02
2023-05-24T05:36:59.086Z,11.33
2023-05-24T05:37:53.559Z,11.73
2023-05-24T05:38:25.191Z,10.95
2023-05-24T05:38:57.076Z,10.60
2023-05-24T05:39:28.903Z,11.73
2023-05-24T05:40:00.811Z,11.27
2023-05-24T05:40:32.532Z,11.50
2023-05-24T05:41:04.716Z,11.20
2023-05-24T05:41:39.904Z,11.30
2023-05-24T05:42:12.057Z,10.32
2023-05-24T05:42:43.738Z,11.23
2023-05-24T05:43:15.779Z,10.27
2023-05-24T05:43:47.414Z,11.65
2023-05-24T05:44:20.233Z,10.77
2023-05-24T05:44:52.827Z,11.43
2023-05-24T05:45:24.804Z,10.38
2023-05-24T05:45:56.918Z,10.88
2023-05-24T05:46:28.582Z,10.70
2023-05-24T05:47:00.310Z,10.65
2023-05-24T05:47:32.039Z,10.60
2023-05-24T05:48:04.037Z,11.13
2023-05-24T05:48:35.777Z,11.07
2023-05-24T05:49:07.618Z,10.88
2023-05-24T05:49:39.258Z,10.75
2023-05-24T05:50:11.298Z,11.95
2023-05-24T05:50:43.185Z,9.80
2023-05-24T05:51:15.053Z,10.52
2023-05-24T05:51:47.232Z,10.60
2023-05-24T05:52:18.987Z,10.40
2023-05-24T05:52:50.723Z,10.93
2023-05-24T05:53:22.414Z,10.00
2023-05-24T05:53:54.098Z,10.55
2023-05-24T05:54:27.826Z,10.57
2023-05-24T05:55:00.461Z,10.00
2023-05-24T05:55:32.154Z,10.15
2023-05-24T05:56:04.058Z,9.88
2023-05-24T05:56:41.111Z,10.05
2023-05-24T05:57:13.050Z,10.52
2023-05-24T05:57:44.753Z,9.40
2023-05-24T05:58:16.460Z,10.27
2023-05-24T05:58:48.247Z,10.73
2023-05-24T05:59:20.122Z,9.82
2023-05-24T05:59:52.111Z,10.82
2023-05-24T06:00:23.824Z,9.90
2023-05-24T06:00:55.570Z,10.02
2023-05-24T06:01:27.264Z,10.48
2023-05-24T06:01:58.901Z,10.95
2023-05-24T06:02:30.844Z,10.40
2023-05-24T06:03:02.614Z,10.95
2023-05-24T06:03:34.703Z,11.60
2023-05-24T06:04:07.039Z,10.63
2023-05-24T06:04:39.205Z,10.45
2023-05-24T06:05:11.138Z,10.50
2023-05-24T06:05:43.250Z,10.30
2023-05-24T06:06:14.928Z,11.25
2023-05-24T06:06:49.801Z,10.65
2023-05-24T06:07:21.628Z,10.25
2023-05-24T06:07:53.263Z,10.63
2023-05-24T06:08:24.972Z,10.38
2023-05-24T06:08:57.831Z,10.60
2023-05-24T06:09:29.595Z,10.57
2023-05-24T06:10:01.376Z,10.70
2023-05-24T06:10:33.163Z,10.40
2023-05-24T06:11:04.808Z,10.35
2023-05-24T06:11:36.782Z,10.57
2023-05-24T06:12:08.904Z,10.63
2023-05-24T06:12:40.716Z,10.23
2023-05-24T06:13:13.342Z,10.15
2023-05-24T06:13:44.971Z,10.18
2023-05-24T06:14:21.531Z,10.45
2023-05-24T06:14:53.303Z,9.60
2023-05-24T06:15:25.064Z,9.45
2023-05-24T06:15:57.025Z,10.05
2023-05-24T06:16:28.778Z,10.18
2023-05-24T06:17:00.607Z,10.70
2023-05-24T06:17:32.363Z,10.60
2023-05-24T06:18:04.253Z,10.18
2023-05-24T06:18:36.870Z,10.70
2023-05-24T06:19:08.545Z,9.80
2023-05-24T06:19:40.210Z,9.95
2023-05-24T06:20:15.722Z,9.23
2023-05-24T06:20:47.717Z,10.38
2023-05-24T06:21:19.456Z,9.93
2023-05-24T06:21:51.805Z,9.18
2023-05-24T06:22:23.648Z,10.07
2023-05-24T06:22:55.470Z,9.48
2023-05-24T06:23:27.122Z,10.15
2023-05-24T06:23:59.891Z,10.13
2023-05-24T06:24:34.414Z,10.00
2023-05-24T06:25:06.671Z,9.68
2023-05-24T06:25:38.839Z,10.77
2023-05-24T06:26:10.604Z,9.93
2023-05-24T06:26:42.301Z,10.55
2023-05-24T06:27:14.114Z,10.63
2023-05-24T06:27:46.086Z,10.13
2023-05-24T06:28:17.800Z,9.88
2023-05-24T06:28:49.467Z,9.80
2023-05-24T06:29:22.333Z,9.82
2023-05-24T06:29:54.043Z,10.23
2023-05-24T06:30:26.681Z,10.43
2023-05-24T06:30:58.469Z,10.23
2023-05-24T06:31:30.295Z,10.10
2023-05-24T06:32:02.014Z,10.93
2023-05-24T06:32:33.718Z,10.48
2023-05-24T06:33:05.507Z,10.98
2023-05-24T06:33:38.284Z,10.60
2023-05-24T06:34:10.085Z,10.52
2023-05-24T06:34:42.177Z,10.18
2023-05-24T06:35:14.335Z,10.88
2023-05-24T06:35:46.201Z,11.05
2023-05-24T06:36:17.850Z,10.63
2023-05-24T06:36:51.122Z,10.93
2023-05-24T06:37:25.596Z,10.68
2023-05-24T06:37:58.247Z,10.52
2023-05-24T06:38:30.200Z,10.25
2023-05-24T06:39:02.792Z,10.98
2023-05-24T06:39:34.600Z,11.25
2023-05-24T06:40:09.181Z,11.02
2023-05-24T06:40:41.859Z,10.13
2023-05-24T06:41:13.821Z,10.25
2023-05-24T06:41:47.301Z,11.17
2023-05-24T06:42:19.221Z,10.40
2023-05-24T06:42:50.912Z,10.15
2023-05-24T06:43:22.566Z,10.48
2023-05-24T06:43:54.196Z,10.23
2023-05-24T06:44:32.195Z,10.18
2023-05-24T06:45:04.218Z,10.40
2023-05-24T06:45:36.716Z,10.25
2023-05-24T06:46:08.611Z,10.27
2023-05-24T06:46:41.034Z,11.00
2023-05-24T06:47:13.018Z,10.47
2023-05-24T06:47:44.802Z,10.82
2023-05-24T06:48:16.875Z,10.82
2023-05-24T06:48:48.788Z,9.95
2023-05-24T06:49:20.466Z,10.60
2023-05-24T06:49:52.113Z,10.07
2023-05-24T06:50:23.948Z,10.73
2023-05-24T06:50:55.930Z,10.35
2023-05-24T06:51:28.049Z,10.18
2023-05-24T06:51:59.759Z,10.30
2023-05-24T06:52:31.404Z,10.50
2023-05-24T06:53:03.174Z,10.43
2023-05-24T06:53:34.806Z,10.32
2023-05-24T06:54:06.789Z,10.18
2023-05-24T06:54:38.505Z,10.68
2023-05-24T06:55:10.820Z,10.63
2023-05-24T06:55:42.565Z,10.90
2023-05-24T06:56:15.232Z,10.45
2023-05-24T06:56:46.891Z,10.82
2023-05-24T06:57:18.679Z,9.88
2023-05-24T06:57:50.747Z,10.33
2023-05-24T06:58:22.973Z,10.18
2023-05-24T06:58:55.632Z,9.48
2023-05-24T06:59:27.336Z,10.23
2023-05-24T06:59:59.009Z,9.80
2023-05-24T07:00:30.707Z,9.52
2023-05-24T07:01:05.201Z,10.10
2023-05-24T07:01:39.877Z,10.18
2023-05-24T07:02:11.882Z,10.18
2023-05-24T07:02:43.679Z,10.20
2023-05-24T07:03:15.612Z,10.10
2023-05-24T07:03:47.216Z,9.00
2023-05-24T07:04:18.973Z,9.05
2023-05-24T07:04:50.807Z,9.50
2023-05-24T07:05:22.615Z,9.85
2023-05-24T07:05:54.249Z,9.18
2023-05-24T07:06:27.537Z,9.55
2023-05-24T07:06:59.248Z,9.57
2023-05-24T07:07:31.335Z,9.00
2023-05-24T07:08:03.367Z,8.65
2023-05-24T07:08:34.963Z,9.57
2023-05-24T07:09:06.985Z,9.52
2023-05-24T07:09:41.616Z,9.07
2023-05-24T07:10:13.511Z,9.50
2023-05-24T07:10:45.504Z,8.60
2023-05-24T07:11:17.336Z,8.98
2023-05-24T07:11:49.092Z,9.30